createdAt,value
2023-09-18T00:00:56.369Z,99.90
2023-09-18T00:03:26.073Z,99.90
2023-09-18T00:05:54.661Z,99.90
2023-09-18T00:08:22.470Z,99.90
2023-09-18T00:10:55.903Z,99.90
2023-09-18T00:13:25.065Z,99.90
2023-09-18T00:15:57.212Z,99.90
2023-09-18T00:18:26.076Z,99.90
2023-09-18T00:20:53.784Z,99.90
2023-09-18T00:23:21.540Z,99.90
2023-09-18T00:25:49.305Z,99.90
2023-09-18T00:28:16.757Z,99.90
2023-09-18T00:30:50.894Z,99.90
2023-09-18T00:33:21.006Z,99.90
2023-09-18T00:35:53.280Z,99.90
2023-09-18T00:38:23.714Z,99.90
2023-09-18T00:40:51.287Z,99.90
2023-09-18T00:43:19.509Z,99.90
2023-09-18T00:45:49.652Z,99.90
2023-09-18T00:48:19.120Z,99.90
2023-09-18T00:50:48.079Z,99.90
2023-09-18T00:53:23.516Z,99.90
2023-09-18T00:55:56.702Z,99.90
2023-09-18T00:58:25.394Z,99.90
2023-09-18T01:00:53.012Z,99.90
2023-09-18T01:03:24.686Z,99.90
2023-09-18T01:05:52.355Z,99.90
2023-09-18T01:08:22.448Z,99.90
2023-09-18T01:11:11.719Z,99.90
2023-09-18T01:14:15.732Z,99.90
2023-09-18T01:16:58.462Z,99.90
2023-09-18T01:19:41.725Z,99.90
2023-09-18T01:22:11.148Z,99.90
2023-09-18T01:24:41.066Z,99.90
2023-09-18T01:27:18.350Z,99.90
2023-09-18T01:29:47.634Z,99.90
2023-09-18T01:32:16.124Z,99.90
2023-09-18T01:34:56.242Z,99.90
2023-09-18T01:37:31.689Z,99.90
2023-09-18T01:40:00.969Z,99.90
2023-09-18T01:42:29.476Z,99.90
2023-09-18T01:44:57.131Z,99.90
2023-09-18T01:47:24.850Z,99.90
2023-09-18T01:49:52.604Z,99.90
2023-09-18T01:52:20.385Z,99.90
2023-09-18T01:54:48.335Z,99.90
2023-09-18T01:57:15.741Z,99.90
2023-09-18T01:59:43.099Z,99.90
2023-09-18T02:02:16.660Z,99.90
2023-09-18T02:05:05.630Z,99.90
2023-09-18T02:07:34.197Z,99.90
2023-09-18T02:10:02.323Z,99.90
2023-09-18T02:12:29.915Z,99.90
2023-09-18T02:14:59.836Z,99.90
2023-09-18T02:17:27.482Z,99.90
2023-09-18T02:19:54.857Z,99.90
2023-09-18T02:22:22.294Z,99.90
2023-09-18T02:24:49.987Z,99.90
2023-09-18T02:27:20.243Z,99.90
2023-09-18T02:29:47.498Z,99.90
2023-09-18T02:32:14.985Z,99.90
2023-09-18T02:34:42.585Z,99.90
2023-09-18T02:37:10.111Z,99.90
2023-09-18T02:39:37.626Z,99.90
2023-09-18T02:42:05.354Z,99.90
2023-09-18T02:44:33.261Z,99.90
2023-09-18T02:47:00.699Z,99.90
2023-09-18T02:49:28.435Z,99.90
2023-09-18T02:51:56.040Z,99.90
2023-09-18T02:54:23.537Z,99.90
2023-09-18T02:56:50.917Z,99.90
2023-09-18T03:12:44.839Z,99.90
2023-09-18T03:15:12.940Z,99.90
2023-09-18T03:17:43.207Z,99.90
2023-09-18T03:20:11.367Z,99.90
2023-09-18T03:22:39.029Z,99.90
2023-09-18T03:25:07.225Z,99.90
2023-09-18T03:27:34.680Z,99.90
2023-09-18T03:30:02.375Z,99.90
2023-09-18T03:32:33.065Z,99.90
2023-09-18T03:35:02.048Z,99.90
2023-09-18T03:37:30.015Z,99.90
2023-09-18T03:39:57.610Z,99.90
2023-09-18T03:42:24.957Z,99.90
2023-09-18T03:44:52.241Z,99.90
2023-09-18T03:47:20.245Z,99.90
2023-09-18T03:49:49.799Z,99.90
2023-09-18T03:52:17.422Z,99.90
2023-09-18T03:54:44.880Z,99.90
2023-09-18T03:57:12.441Z,99.90
2023-09-18T03:59:42.671Z,99.90
2023-09-18T04:02:10.366Z,99.90
2023-09-18T04:04:37.810Z,99.90
2023-09-18T04:07:10.157Z,99.90
2023-09-18T04:09:39.161Z,99.90
2023-09-18T04:12:07.802Z,99.90
2023-09-18T04:14:35.389Z,99.90
2023-09-18T04:17:03.238Z,99.90
2023-09-18T04:19:31.040Z,99.90
2023-09-18T04:21:59.743Z,99.90
2023-09-18T04:24:27.737Z,99.90
2023-09-18T04:26:55.356Z,99.90
2023-09-18T04:29:22.820Z,99.90
2023-09-18T04:31:52.549Z,99.90
2023-09-18T04:34:20.434Z,99.90
2023-09-18T04:36:48.883Z,99.90
2023-09-18T04:39:16.458Z,99.90
2023-09-18T04:41:44.197Z,99.90
2023-09-18T04:44:14.336Z,99.90
2023-09-18T04:46:44.215Z,99.90
2023-09-18T04:49:12.602Z,99.90
2023-09-18T04:51:40.598Z,99.90
2023-09-18T04:54:08.052Z,99.90
2023-09-18T04:56:35.648Z,99.90
2023-09-18T04:59:03.915Z,99.90
2023-09-18T05:01:31.543Z,99.90
2023-09-18T05:03:59.558Z,99.90
2023-09-18T05:06:27.271Z,99.90
2023-09-18T05:08:55.696Z,99.90
2023-09-18T05:11:26.056Z,99.90
2023-09-18T05:13:54.455Z,99.90
2023-09-18T05:16:21.912Z,99.90
2023-09-18T05:18:49.318Z,99.90
2023-09-18T05:21:17.852Z,99.90
2023-09-18T05:23:45.765Z,99.90
2023-09-18T05:26:14.091Z,99.90
2023-09-18T05:28:41.422Z,99.90
2023-09-18T05:31:09.029Z,99.90
2023-09-18T05:33:36.338Z,99.90
2023-09-18T05:36:04.559Z,99.90
2023-09-18T05:38:31.997Z,99.90
2023-09-18T05:40:59.383Z,99.90
2023-09-18T05:43:26.840Z,99.90
2023-09-18T05:45:54.150Z,99.90
2023-09-18T05:48:21.709Z,99.90
2023-09-18T05:50:49.930Z,99.90
2023-09-18T05:53:19.988Z,99.90
2023-09-18T05:55:48.657Z,99.90
2023-09-18T05:58:16.261Z,99.90
2023-09-18T06:00:43.977Z,99.90
2023-09-18T06:03:13.920Z,99.90
2023-09-18T06:05:41.416Z,99.90
2023-09-18T06:08:09.345Z,99.90
2023-09-18T06:10:36.677Z,99.90
2023-09-18T06:13:07.354Z,99.90
2023-09-18T06:15:34.950Z,99.90
2023-09-18T06:18:03.171Z,99.90
2023-09-18T06:20:31.293Z,99.90
2023-09-18T06:22:58.963Z,99.90
2023-09-18T06:25:26.427Z,99.90
2023-09-18T06:27:53.808Z,99.90
2023-09-18T06:30:23.791Z,99.90
2023-09-18T06:32:51.447Z,99.90
2023-09-18T06:35:19.369Z,99.90
2023-09-18T06:37:46.841Z,99.90
2023-09-18T06:40:15.072Z,99.90
2023-09-18T06:42:42.415Z,99.90
2023-09-18T06:45:10.521Z,99.90
2023-09-18T06:47:37.755Z,99.90
2023-09-18T06:50:06.622Z,99.90
2023-09-18T06:52:34.035Z,99.90
2023-09-18T06:55:01.572Z,99.90
2023-09-18T06:57:29.132Z,99.90
2023-09-18T06:59:56.637Z,99.90
2023-09-18T07:02:24.249Z,99.90
2023-09-18T07:04:52.504Z,99.90
2023-09-18T07:07:26.724Z,99.90
2023-09-18T07:12:26.090Z,99.90
2023-09-18T07:14:53.432Z,99.90
2023-09-18T07:17:23.218Z,99.90
2023-09-18T07:19:50.971Z,99.90
2023-09-18T07:22:18.823Z,99.90
2023-09-18T07:24:47.414Z,99.90
2023-09-18T07:27:15.159Z,99.90
2023-09-18T07:29:44.515Z,99.90
2023-09-18T07:32:13.787Z,99.90
2023-09-18T07:34:42.468Z,99.90
2023-09-18T07:37:30.392Z,99.90
2023-09-18T07:39:58.338Z,99.90
2023-09-18T07:42:29.575Z,99.90
2023-09-18T07:44:59.321Z,99.90
2023-09-18T07:47:27.514Z,99.90
2023-09-18T07:49:56.243Z,99.90
2023-09-18T07:52:24.140Z,99.90
2023-09-18T07:54:51.965Z,99.90
2023-09-18T07:57:20.680Z,99.90
2023-09-18T07:59:49.441Z,99.90
2023-09-18T08:02:36.831Z,99.90
2023-09-18T08:05:06.705Z,99.90
2023-09-18T08:07:34.236Z,99.90
2023-09-18T08:10:02.215Z,99.90
2023-09-18T08:12:29.744Z,99.90
2023-09-18T08:15:00.737Z,99.90
2023-09-18T08:17:28.674Z,99.90
2023-09-18T08:19:57.077Z,99.90
2023-09-18T08:22:24.942Z,99.90
2023-09-18T08:24:54.342Z,99.90
2023-09-18T08:27:31.304Z,99.90
2023-09-18T08:29:58.759Z,99.90
2023-09-18T08:32:31.922Z,99.90
2023-09-18T08:34:59.978Z,99.90
2023-09-18T08:37:27.789Z,99.90
2023-09-18T08:39:56.173Z,99.90
2023-09-18T08:42:26.288Z,99.90
2023-09-18T08:44:55.631Z,99.90
2023-09-18T08:47:27.263Z,99.90
2023-09-18T08:49:58.262Z,99.90
2023-09-18T08:52:27.559Z,99.90
2023-09-18T08:54:57.706Z,99.90
2023-09-18T08:57:26.211Z,99.90
2023-09-18T08:59:57.160Z,99.90
2023-09-18T09:02:25.566Z,99.90
2023-09-18T09:04:53.795Z,99.90
2023-09-18T09:07:33.131Z,99.90
2023-09-18T09:10:04.589Z,99.90
2023-09-18T09:12:56.434Z,99.90
2023-09-18T09:15:51.818Z,99.90
2023-09-18T09:18:58.140Z,99.90
2023-09-18T09:21:55.489Z,99.90
2023-09-18T09:25:02.089Z,99.90
2023-09-18T09:27:49.233Z,99.90
2023-09-18T09:30:30.238Z,99.90
2023-09-18T09:33:03.995Z,99.90
2023-09-18T09:35:37.653Z,99.90
2023-09-18T09:38:17.449Z,99.90
2023-09-18T09:40:46.852Z,99.90
2023-09-18T09:43:16.574Z,99.90
2023-09-18T09:45:48.404Z,99.90
2023-09-18T09:48:38.761Z,99.90
2023-09-18T09:51:10.119Z,99.90
2023-09-18T09:53:52.764Z,99.90
2023-09-18T09:56:21.060Z,99.90
2023-09-18T09:59:05.540Z,99.90
2023-09-18T10:01:39.715Z,99.90
2023-09-18T10:04:15.401Z,99.90
2023-09-18T10:06:47.662Z,99.90
2023-09-18T10:09:17.639Z,99.90
2023-09-18T10:11:57.224Z,99.90
2023-09-18T10:14:55.247Z,99.90
2023-09-18T10:17:31.678Z,99.90
2023-09-18T10:20:21.088Z,99.90
2023-09-18T10:22:55.325Z,99.90
2023-09-18T10:25:29.345Z,99.90
2023-09-18T10:28:03.798Z,99.90
2023-09-18T10:30:35.967Z,99.90
2023-09-18T10:33:04.279Z,99.90
2023-09-18T10:35:45.287Z,99.90
2023-09-18T10:38:22.839Z,99.90
2023-09-18T10:40:55.820Z,99.90
2023-09-18T10:43:23.411Z,99.90
2023-09-18T10:45:53.193Z,99.90
2023-09-18T10:48:29.198Z,99.40
2023-09-18T10:51:06.055Z,98.60
2023-09-18T10:53:34.695Z,98.80
2023-09-18T10:56:09.096Z,99.00
2023-09-18T10:58:40.263Z,98.90
2023-09-18T11:01:17.567Z,98.70
2023-09-18T11:03:47.037Z,98.80
2023-09-18T11:06:23.159Z,98.80
2023-09-18T11:09:05.797Z,98.30
2023-09-18T11:11:36.869Z,98.20
2023-09-18T11:14:16.886Z,98.30
2023-09-18T11:16:45.028Z,98.10
2023-09-18T11:19:21.180Z,98.40
2023-09-18T11:21:49.473Z,97.80
2023-09-18T11:24:30.801Z,97.50
2023-09-18T11:27:03.235Z,96.50
2023-09-18T11:29:39.502Z,96.30
2023-09-18T11:32:11.150Z,95.30
2023-09-18T11:34:45.957Z,95.80
2023-09-18T11:37:25.300Z,95.70
2023-09-18T11:39:56.846Z,95.30
2023-09-18T11:42:28.728Z,95.50
2023-09-18T11:44:58.301Z,95.60
2023-09-18T11:47:37.445Z,95.80
2023-09-18T11:50:09.766Z,95.70
2023-09-18T11:52:38.853Z,95.80
2023-09-18T11:55:11.062Z,95.70
2023-09-18T12:00:29.528Z,95.20
2023-09-18T12:02:57.098Z,95.40
2023-09-18T12:05:27.723Z,95.30
2023-09-18T12:07:56.929Z,94.70
2023-09-18T12:10:30.184Z,94.40
2023-09-18T12:12:57.988Z,94.20
2023-09-18T12:15:25.905Z,94.20
2023-09-18T12:17:57.962Z,94.20
2023-09-18T12:20:25.538Z,93.70
2023-09-18T12:22:56.046Z,93.30
2023-09-18T12:25:26.911Z,93.00
2023-09-18T12:27:58.526Z,93.40
2023-09-18T12:30:26.701Z,92.70
2023-09-18T12:33:06.555Z,92.70
2023-09-18T12:35:34.833Z,91.70
2023-09-18T12:38:06.342Z,92.30
2023-09-18T12:40:36.606Z,91.40
2023-09-18T12:43:04.855Z,90.40
2023-09-18T12:45:32.738Z,89.30
2023-09-18T12:48:03.859Z,88.40
2023-09-18T12:50:32.528Z,88.10
2023-09-18T12:53:15.572Z,87.80
2023-09-18T12:55:43.979Z,87.50
2023-09-18T12:58:15.368Z,87.60
2023-09-18T13:00:52.850Z,86.00
2023-09-18T13:03:21.601Z,86.20
2023-09-18T13:05:56.194Z,86.90
2023-09-18T13:08:26.282Z,86.10
2023-09-18T13:10:56.941Z,85.90
2023-09-18T13:13:26.926Z,86.60
2023-09-18T13:16:01.051Z,85.60
2023-09-18T13:18:29.321Z,86.10
2023-09-18T13:20:58.321Z,83.50
2023-09-18T13:23:36.193Z,83.00
2023-09-18T13:26:06.455Z,82.10
2023-09-18T13:28:37.992Z,82.60
2023-09-18T13:31:06.616Z,82.80
2023-09-18T13:33:40.286Z,83.50
2023-09-18T13:36:08.301Z,83.90
2023-09-18T13:38:35.752Z,83.60
2023-09-18T13:41:06.392Z,83.20
2023-09-18T13:43:38.578Z,84.10
2023-09-18T13:46:06.620Z,83.40
2023-09-18T13:48:34.602Z,83.30
2023-09-18T13:51:04.892Z,82.40
2023-09-18T13:53:33.314Z,81.10
2023-09-18T13:56:03.959Z,80.50
2023-09-18T13:58:31.390Z,79.50
2023-09-18T14:00:59.099Z,79.20
2023-09-18T14:03:27.302Z,78.00
2023-09-18T14:05:54.799Z,78.10
2023-09-18T14:08:23.051Z,77.00
2023-09-18T14:10:50.668Z,76.70
2023-09-18T14:13:21.804Z,76.00
2023-09-18T14:15:52.336Z,76.00
2023-09-18T14:18:23.549Z,76.70
2023-09-18T14:20:54.315Z,76.60
2023-09-18T14:23:22.681Z,76.70
2023-09-18T14:25:55.537Z,76.30
2023-09-18T14:28:33.119Z,74.70
2023-09-18T14:31:04.034Z,73.90
2023-09-18T14:33:32.095Z,73.00
2023-09-18T14:35:59.652Z,72.60
2023-09-18T14:38:27.048Z,72.00
2023-09-18T14:40:54.706Z,71.20
2023-09-18T14:43:26.417Z,70.80
2023-09-18T14:45:57.448Z,69.80
2023-09-18T14:48:25.519Z,70.60
2023-09-18T14:51:00.681Z,70.10
2023-09-18T14:53:28.489Z,70.10
2023-09-18T14:55:56.531Z,70.20
2023-09-18T14:58:32.784Z,69.30
2023-09-18T15:01:01.264Z,68.70
2023-09-18T15:03:29.064Z,68.40
2023-09-18T15:06:03.431Z,68.00
2023-09-18T15:08:31.109Z,67.70
2023-09-18T15:11:00.950Z,67.80
2023-09-18T15:13:29.000Z,68.30
2023-09-18T15:16:00.590Z,67.80
2023-09-18T15:18:34.241Z,67.10
2023-09-18T15:21:13.384Z,67.10
2023-09-18T15:23:41.774Z,67.20
2023-09-18T15:26:10.136Z,67.60
2023-09-18T15:28:38.673Z,68.00
2023-09-18T15:31:06.406Z,68.60
2023-09-18T15:33:39.026Z,69.00
2023-09-18T15:36:07.576Z,69.10
2023-09-18T15:38:35.938Z,69.10
2023-09-18T15:43:48.049Z,68.60
2023-09-18T15:46:16.574Z,68.80
2023-09-18T15:48:43.941Z,68.50
2023-09-18T15:51:13.984Z,69.00
2023-09-18T15:53:42.796Z,69.00
2023-09-18T15:56:10.310Z,68.50
2023-09-18T15:58:38.222Z,68.60
2023-09-18T16:01:13.870Z,68.60
2023-09-18T16:03:48.906Z,68.50
2023-09-18T16:06:22.290Z,69.00
2023-09-18T16:08:52.553Z,69.60
2023-09-18T16:11:19.803Z,70.00
2023-09-18T16:13:47.063Z,70.30
2023-09-18T16:16:14.902Z,70.50
2023-09-18T16:18:42.414Z,70.90
2023-09-18T16:21:10.144Z,71.20
2023-09-18T16:23:37.696Z,71.40
2023-09-18T16:26:06.269Z,72.20
2023-09-18T16:28:33.849Z,73.10
2023-09-18T16:31:08.837Z,73.90
2023-09-18T16:33:38.204Z,74.80
2023-09-18T16:36:06.174Z,75.70
2023-09-18T16:38:33.695Z,76.20
2023-09-18T16:41:01.543Z,76.70
2023-09-18T16:43:36.270Z,77.40
2023-09-18T16:46:07.063Z,77.90
2023-09-18T16:48:36.218Z,78.50
2023-09-18T16:51:06.148Z,85.10
2023-09-18T16:53:40.669Z,90.00
2023-09-18T16:56:08.483Z,92.10
2023-09-18T16:58:39.756Z,92.20
2023-09-18T17:01:31.869Z,92.90
2023-09-18T17:04:06.234Z,96.70
2023-09-18T17:08:57.699Z,99.50
2023-09-18T17:11:24.094Z,99.90
2023-09-18T17:14:23.347Z,99.90
2023-09-18T17:17:00.449Z,99.90
2023-09-18T17:19:47.636Z,99.90
2023-09-18T17:22:36.684Z,99.90
2023-09-18T17:33:35.735Z,99.90
2023-09-18T17:40:05.400Z,99.90
2023-09-18T17:50:05.724Z,99.90
2023-09-18T17:52:45.146Z,99.90
2023-09-18T17:59:33.149Z,99.90
2023-09-18T18:02:23.149Z,99.90
2023-09-18T18:05:08.255Z,99.90
2023-09-18T18:07:43.411Z,99.90
2023-09-18T18:10:24.441Z,99.90
2023-09-18T18:12:55.841Z,99.90
2023-09-18T18:15:26.860Z,99.90
2023-09-18T18:18:19.430Z,99.90
2023-09-18T18:20:58.345Z,99.90
2023-09-18T18:23:38.091Z,99.90
2023-09-18T18:26:21.812Z,99.90
2023-09-18T18:29:39.605Z,99.90
2023-09-18T18:36:57.168Z,99.90
2023-09-18T18:39:33.631Z,99.90
2023-09-18T18:42:12.431Z,99.90
2023-09-18T18:44:48.791Z,99.90
2023-09-18T18:47:49.577Z,99.90
2023-09-18T18:50:18.222Z,99.90
2023-09-18T18:52:47.492Z,99.90
2023-09-18T18:55:15.733Z,99.90
2023-09-18T18:57:44.100Z,99.90
2023-09-18T19:00:13.414Z,99.90
2023-09-18T19:02:41.622Z,99.90
2023-09-18T19:05:11.243Z,99.90
2023-09-18T19:07:40.911Z,99.90
2023-09-18T19:10:09.582Z,99.90
2023-09-18T19:12:42.098Z,99.90
2023-09-18T19:15:11.187Z,99.90
2023-09-18T19:17:38.746Z,99.90
2023-09-18T19:20:09.433Z,99.90
2023-09-18T19:23:39.333Z,99.90
2023-09-18T19:26:46.998Z,99.90
2023-09-18T19:29:17.628Z,99.90
2023-09-18T19:31:46.983Z,99.90
2023-09-18T19:34:19.136Z,99.90
2023-09-18T19:36:58.750Z,99.90
2023-09-18T19:40:32.786Z,99.90
2023-09-18T19:43:05.023Z,99.90
2023-09-18T19:45:37.072Z,99.90
2023-09-18T19:48:06.327Z,99.90
2023-09-18T19:50:34.499Z,99.90
2023-09-18T19:53:04.006Z,99.90
2023-09-18T19:55:31.606Z,99.90
2023-09-18T19:58:01.929Z,99.90
2023-09-18T20:00:31.132Z,99.90
2023-09-18T20:02:59.058Z,99.90
2023-09-18T20:05:30.287Z,99.90
2023-09-18T20:07:58.433Z,99.90
2023-09-18T20:10:30.952Z,99.90
2023-09-18T20:12:58.604Z,99.90
2023-09-18T20:15:26.356Z,99.90
2023-09-18T20:17:54.612Z,99.90
2023-09-18T20:20:22.521Z,99.90
2023-09-18T20:22:53.095Z,99.90
2023-09-18T20:25:21.269Z,99.90
2023-09-18T20:27:48.938Z,99.90
2023-09-18T20:30:17.283Z,99.90
2023-09-18T20:32:51.970Z,99.90
2023-09-18T20:35:22.957Z,99.90
2023-09-18T20:37:50.381Z,99.90
2023-09-18T20:40:18.234Z,99.90
2023-09-18T20:42:48.705Z,99.90
2023-09-18T20:45:16.322Z,99.90
2023-09-18T20:47:45.393Z,99.90
2023-09-18T20:50:12.927Z,99.90
2023-09-18T20:52:40.513Z,99.90
2023-09-18T20:55:12.511Z,99.90
2023-09-18T20:57:40.456Z,99.90
2023-09-18T21:00:15.089Z,99.90
2023-09-18T21:03:29.798Z,99.90
2023-09-18T21:05:57.575Z,99.90
2023-09-18T21:08:25.351Z,99.90
2023-09-18T21:10:53.432Z,99.90
2023-09-18T21:13:21.042Z,99.90
2023-09-18T21:15:49.196Z,99.90
2023-09-18T21:18:16.813Z,99.90
2023-09-18T21:20:44.526Z,99.90
2023-09-18T21:23:11.998Z,99.90
2023-09-18T21:25:40.905Z,99.90
2023-09-18T21:28:12.138Z,99.90
2023-09-18T21:30:39.886Z,99.90
2023-09-18T21:33:07.193Z,99.90
2023-09-18T21:35:38.011Z,99.90
2023-09-18T21:38:06.428Z,99.90
2023-09-18T21:40:34.720Z,99.90
2023-09-18T21:43:03.147Z,99.90
2023-09-18T21:45:30.866Z,99.90
2023-09-18T21:47:58.678Z,99.90
2023-09-18T21:50:28.666Z,99.90
2023-09-18T21:52:56.843Z,99.90
2023-09-18T21:55:25.090Z,99.90
2023-09-18T21:57:52.419Z,99.90
2023-09-18T22:00:24.052Z,99.90
2023-09-18T22:02:55.030Z,99.90
2023-09-18T22:05:24.293Z,99.90
2023-09-18T22:07:52.088Z,99.90
2023-09-18T22:10:19.433Z,99.90
2023-09-18T22:12:49.297Z,99.90
2023-09-18T22:15:16.816Z,99.90
2023-09-18T22:17:44.274Z,99.90
2023-09-18T22:20:12.386Z,99.90
2023-09-18T22:22:41.177Z,99.90
2023-09-18T22:25:09.014Z,99.90
2023-09-18T22:27:36.429Z,99.90
2023-09-18T22:30:04.137Z,99.90
2023-09-18T22:32:31.584Z,99.90
2023-09-18T22:34:59.049Z,99.90
2023-09-18T22:37:26.533Z,99.90
2023-09-18T22:40:12.451Z,99.90
2023-09-18T22:43:39.638Z,99.90
2023-09-18T22:47:03.323Z,99.90
2023-09-18T22:50:27.086Z,99.90
2023-09-18T22:52:54.212Z,99.90
2023-09-18T22:55:22.568Z,99.90
2023-09-18T22:58:00.731Z,99.90
2023-09-18T23:00:32.698Z,99.90
2023-09-18T23:03:05.609Z,99.90
2023-09-18T23:05:37.252Z,99.90
2023-09-18T23:08:09.278Z,99.90
2023-09-18T23:10:38.529Z,99.90
2023-09-18T23:13:06.636Z,99.90
2023-09-18T23:15:38.910Z,99.90
2023-09-18T23:18:10.380Z,99.90
2023-09-18T23:20:38.497Z,99.90
2023-09-18T23:23:08.933Z,99.90
2023-09-18T23:25:38.971Z,99.90
2023-09-18T23:28:09.271Z,99.90
2023-09-18T23:30:38.397Z,99.90
2023-09-18T23:33:11.944Z,99.90
2023-09-18T23:35:39.803Z,99.90
2023-09-18T23:38:11.391Z,99.90
2023-09-18T23:40:41.131Z,99.90
2023-09-18T23:43:10.834Z,99.90
2023-09-18T23:45:45.985Z,99.90
2023-09-18T23:48:19.707Z,99.90
2023-09-18T23:50:52.881Z,99.90
2023-09-18T23:53:26.461Z,99.90
2023-09-18T23:55:54.475Z,99.90
2023-09-18T23:58:22.026Z,99.90
